Terminal Aerodrome Forecast
Issued by NWS

Home | Current Version | Previous Version | Text Only | Print | Product List | Glossary On
Versions: 1 2 3 4 5 6 7 8 9 10 11 12 13
137
FTUS42 KMLB 311740
TAFTIX
TAF
KTIX 311740Z 3118/0118 09011KT P6SM VCTS SCT035CB SCT250
     FM010000 VRB03KT P6SM FEW035 SCT100 BKN250
     FM011500 VRB05KT P6SM SCT035=

USA.gov is the U.S. government's official web portal to all federal, state and local government web resources and services.